createdAt,value
2023-01-19T00:00:48.590Z,77.73
2023-01-19T00:03:29.043Z,77.71
2023-01-19T00:05:57.147Z,77.47
2023-01-19T00:08:25.476Z,77.46
2023-01-19T00:10:53.582Z,77.64
2023-01-19T00:13:22.043Z,77.82
2023-01-19T00:15:50.194Z,77.71
2023-01-19T00:18:18.467Z,77.91
2023-01-19T00:20:48.346Z,78.28
2023-01-19T00:23:17.320Z,78.28
2023-01-19T00:25:45.329Z,77.73
2023-01-19T00:28:15.154Z,78.03
2023-01-19T00:30:43.764Z,77.96
2023-01-19T00:33:13.655Z,78.54
2023-01-19T00:35:42.457Z,78.41
2023-01-19T00:38:12.641Z,78.67
2023-01-19T00:40:40.758Z,78.59
2023-01-19T00:43:09.014Z,78.68
2023-01-19T00:45:37.102Z,78.83
2023-01-19T00:48:05.724Z,79.38
2023-01-19T00:50:34.051Z,80.22
2023-01-19T00:53:03.178Z,80.30
2023-01-19T00:55:33.308Z,80.88
2023-01-19T00:58:02.794Z,81.85
2023-01-19T01:00:31.142Z,82.17
2023-01-19T01:02:59.868Z,81.70
2023-01-19T01:05:28.197Z,82.16
2023-01-19T01:07:56.429Z,82.34
2023-01-19T01:10:27.193Z,81.93
2023-01-19T01:12:57.702Z,81.21
2023-01-19T01:15:27.677Z,80.81
2023-01-19T01:17:56.432Z,81.16
2023-01-19T01:20:26.933Z,81.12
2023-01-19T01:22:55.450Z,81.41
2023-01-19T01:25:25.823Z,81.67
2023-01-19T01:27:55.959Z,81.72
2023-01-19T01:30:24.647Z,82.02
2023-01-19T01:32:52.904Z,81.73
2023-01-19T01:35:21.042Z,81.38
2023-01-19T01:37:49.452Z,81.32
2023-01-19T01:40:18.787Z,81.85
2023-01-19T01:42:47.026Z,82.36
2023-01-19T01:45:33.039Z,82.51
2023-01-19T01:48:05.431Z,83.00
2023-01-19T01:50:35.340Z,82.86
2023-01-19T01:53:08.219Z,83.39
2023-01-19T01:55:38.912Z,83.01
2023-01-19T01:58:09.463Z,82.45
2023-01-19T02:00:53.286Z,83.06
2023-01-19T02:03:22.365Z,82.85
2023-01-19T02:05:50.555Z,82.93
2023-01-19T02:08:39.125Z,82.64
2023-01-19T02:11:24.703Z,82.41
2023-01-19T02:13:53.106Z,83.91
2023-01-19T02:16:22.526Z,83.86
2023-01-19T02:18:50.980Z,83.91
2023-01-19T02:21:21.071Z,83.82
2023-01-19T02:23:53.224Z,84.33
2023-01-19T02:26:22.914Z,83.43
2023-01-19T02:28:53.809Z,83.76
2023-01-19T02:31:21.775Z,84.31
2023-01-19T02:33:50.183Z,84.13
2023-01-19T02:36:19.203Z,83.49
2023-01-19T02:38:48.613Z,82.84
2023-01-19T02:41:20.690Z,82.95
2023-01-19T02:43:49.871Z,83.05
2023-01-19T02:46:17.992Z,82.89
2023-01-19T02:48:46.253Z,82.81
2023-01-19T02:51:16.891Z,82.75
2023-01-19T02:54:12.175Z,82.44
2023-01-19T02:56:51.988Z,82.29
2023-01-19T02:59:30.002Z,82.32
2023-01-19T03:02:06.193Z,82.20
2023-01-19T03:04:41.732Z,82.41
2023-01-19T03:07:12.771Z,82.80
2023-01-19T03:09:44.199Z,82.59
2023-01-19T03:12:23.521Z,82.38
2023-01-19T03:14:53.710Z,82.81
2023-01-19T03:17:22.422Z,83.30
2023-01-19T03:19:51.559Z,83.34
2023-01-19T03:22:23.119Z,83.56
2023-01-19T03:24:51.772Z,83.50
2023-01-19T03:27:25.155Z,82.68
2023-01-19T03:29:56.248Z,82.01
2023-01-19T03:32:29.629Z,81.47
2023-01-19T03:35:00.805Z,81.18
2023-01-19T03:37:29.553Z,81.33
2023-01-19T03:39:57.812Z,81.64
2023-01-19T03:42:28.656Z,82.13
2023-01-19T03:44:57.215Z,82.03
2023-01-19T03:47:26.420Z,83.40
2023-01-19T03:49:55.316Z,83.51
2023-01-19T03:52:30.250Z,83.76
2023-01-19T03:54:58.495Z,84.41
2023-01-19T03:57:27.897Z,83.68
2023-01-19T03:59:56.758Z,83.21
2023-01-19T04:02:25.167Z,83.44
2023-01-19T04:04:53.552Z,83.39
2023-01-19T04:07:21.610Z,83.16
2023-01-19T04:09:49.793Z,83.46
2023-01-19T04:12:17.740Z,82.98
2023-01-19T04:14:47.459Z,82.80
2023-01-19T04:17:16.032Z,82.64
2023-01-19T04:19:45.084Z,82.60
2023-01-19T04:22:13.076Z,82.40
2023-01-19T04:24:41.289Z,82.47
2023-01-19T04:27:09.240Z,82.39
2023-01-19T04:29:37.439Z,82.66
2023-01-19T04:32:06.999Z,82.46
2023-01-19T04:34:35.329Z,82.76
2023-01-19T04:37:03.329Z,82.60
2023-01-19T04:39:31.593Z,82.67
2023-01-19T04:42:00.732Z,82.43
2023-01-19T04:44:29.082Z,82.79
2023-01-19T04:46:57.078Z,82.88
2023-01-19T04:49:26.843Z,83.04
2023-01-19T04:51:55.066Z,83.05
2023-01-19T04:54:23.439Z,83.18
2023-01-19T04:56:51.530Z,83.66
2023-01-19T04:59:20.395Z,83.13
2023-01-19T05:01:48.494Z,83.31
2023-01-19T05:04:17.278Z,83.24
2023-01-19T05:06:46.823Z,83.34
2023-01-19T05:09:15.551Z,83.71
2023-01-19T05:11:43.543Z,84.18
2023-01-19T05:14:11.895Z,84.30
2023-01-19T05:16:39.864Z,84.33
2023-01-19T05:19:08.115Z,84.41
2023-01-19T05:21:36.127Z,84.83
2023-01-19T05:24:06.042Z,85.11
2023-01-19T05:26:34.341Z,84.76
2023-01-19T05:29:02.701Z,84.76
2023-01-19T05:31:30.789Z,85.65
2023-01-19T05:33:59.060Z,87.37
2023-01-19T05:36:27.504Z,87.98
2023-01-19T05:38:55.743Z,88.62
2023-01-19T05:41:25.095Z,88.54
2023-01-19T05:43:53.290Z,89.02
2023-01-19T05:46:21.335Z,89.10
2023-01-19T05:48:49.603Z,89.41
2023-01-19T05:51:17.893Z,88.81
2023-01-19T05:53:46.138Z,88.79
2023-01-19T05:56:14.070Z,88.60
2023-01-19T05:58:43.652Z,88.27
2023-01-19T06:01:11.741Z,88.24
2023-01-19T06:03:40.931Z,87.68
2023-01-19T06:06:09.070Z,87.80
2023-01-19T06:08:37.341Z,87.54
2023-01-19T06:11:06.846Z,87.30
2023-01-19T06:13:35.249Z,86.87
2023-01-19T06:16:04.852Z,86.73
2023-01-19T06:18:33.402Z,86.41
2023-01-19T06:21:04.559Z,86.77
2023-01-19T06:23:34.029Z,86.45
2023-01-19T06:26:02.041Z,86.28
2023-01-19T06:28:30.400Z,86.64
2023-01-19T06:30:58.592Z,87.35
2023-01-19T06:33:28.792Z,87.80
2023-01-19T06:35:57.215Z,87.41
2023-01-19T06:38:25.654Z,88.03
2023-01-19T06:40:54.779Z,88.23
2023-01-19T06:43:23.235Z,88.54
2023-01-19T06:45:51.626Z,88.38
2023-01-19T06:48:19.938Z,88.56
2023-01-19T06:50:49.887Z,88.92
2023-01-19T06:53:20.657Z,89.09
2023-01-19T06:55:49.128Z,89.25
2023-01-19T06:58:17.582Z,89.04
2023-01-19T07:00:45.661Z,88.63
2023-01-19T07:03:20.610Z,88.87
2023-01-19T07:05:52.416Z,88.18
2023-01-19T07:08:20.806Z,87.98
2023-01-19T07:11:26.056Z,88.14
2023-01-19T07:13:38.381Z,88.08
2023-01-19T07:16:08.236Z,87.56
2023-01-19T07:18:37.209Z,87.39
2023-01-19T07:21:07.622Z,87.16
2023-01-19T07:23:36.223Z,86.79
2023-01-19T07:26:04.488Z,86.47
2023-01-19T07:28:32.956Z,86.34
2023-01-19T07:31:01.145Z,85.92
2023-01-19T07:33:29.759Z,85.84
2023-01-19T07:35:58.455Z,86.20
2023-01-19T07:38:28.162Z,85.67
2023-01-19T07:41:01.197Z,85.63
2023-01-19T07:43:29.444Z,85.20
2023-01-19T07:45:57.972Z,85.28
2023-01-19T07:48:26.315Z,85.31
2023-01-19T07:50:54.651Z,86.10
2023-01-19T07:53:23.137Z,87.22
2023-01-19T07:55:56.669Z,87.47
2023-01-19T07:58:24.964Z,87.50
2023-01-19T08:00:53.062Z,88.13
2023-01-19T08:03:21.373Z,87.82
2023-01-19T08:05:51.771Z,88.06
2023-01-19T08:08:20.263Z,88.08
2023-01-19T08:10:51.128Z,88.35
2023-01-19T08:13:20.866Z,88.05
2023-01-19T08:15:50.508Z,87.44
2023-01-19T08:18:18.820Z,87.54
2023-01-19T08:20:46.951Z,87.19
2023-01-19T08:23:15.182Z,87.03
2023-01-19T08:25:45.225Z,86.83
2023-01-19T08:28:14.868Z,86.80
2023-01-19T08:30:45.322Z,87.09
2023-01-19T08:33:14.174Z,87.15
2023-01-19T08:35:44.239Z,86.78
2023-01-19T08:38:12.543Z,87.08
2023-01-19T08:40:42.026Z,86.85
2023-01-19T08:43:12.733Z,86.78
2023-01-19T08:45:46.414Z,86.89
2023-01-19T08:48:16.859Z,87.14
2023-01-19T08:50:46.607Z,87.13
2023-01-19T08:53:15.458Z,86.69
2023-01-19T08:55:43.755Z,85.96
2023-01-19T08:58:12.121Z,85.31
2023-01-19T09:00:40.942Z,84.18
2023-01-19T09:03:11.512Z,84.19
2023-01-19T09:05:41.086Z,84.35
2023-01-19T09:08:11.606Z,84.43
2023-01-19T09:10:40.817Z,84.20
2023-01-19T09:13:10.867Z,85.88
2023-01-19T09:15:39.536Z,85.96
2023-01-19T09:18:10.120Z,86.06
2023-01-19T09:20:39.101Z,86.58
2023-01-19T09:23:10.571Z,86.33
2023-01-19T09:25:38.968Z,86.41
2023-01-19T09:28:09.153Z,86.11
2023-01-19T09:30:37.719Z,85.95
2023-01-19T09:33:07.439Z,86.47
2023-01-19T09:35:36.234Z,86.07
2023-01-19T09:38:04.907Z,86.72
2023-01-19T09:40:34.401Z,86.56
2023-01-19T09:43:13.507Z,86.06
2023-01-19T09:45:46.946Z,86.64
2023-01-19T09:48:33.207Z,85.59
2023-01-19T09:51:03.631Z,85.87
2023-01-19T09:53:43.380Z,86.07
2023-01-19T09:56:14.942Z,85.91
2023-01-19T09:58:43.385Z,86.34
2023-01-19T10:01:23.586Z,86.26
2023-01-19T10:04:03.783Z,86.09
2023-01-19T10:06:31.883Z,85.97
2023-01-19T10:09:05.192Z,85.98
2023-01-19T10:11:52.091Z,86.34
2023-01-19T10:14:27.306Z,85.95
2023-01-19T10:17:02.398Z,85.68
2023-01-19T10:19:33.605Z,85.41
2023-01-19T10:22:05.968Z,85.29
2023-01-19T10:24:39.779Z,85.33
2023-01-19T10:27:14.612Z,85.25
2023-01-19T10:29:42.999Z,85.63
2023-01-19T10:32:13.679Z,85.84
2023-01-19T10:34:42.248Z,85.29
2023-01-19T10:37:18.380Z,85.48
2023-01-19T10:39:47.291Z,85.04
2023-01-19T10:42:17.493Z,84.29
2023-01-19T10:44:46.209Z,83.61
2023-01-19T10:47:17.515Z,82.33
2023-01-19T10:49:45.945Z,81.58
2023-01-19T10:52:22.240Z,80.98
2023-01-19T10:54:50.523Z,80.15
2023-01-19T10:57:27.781Z,79.83
2023-01-19T10:59:56.202Z,80.53
2023-01-19T11:02:26.933Z,81.78
2023-01-19T11:04:57.285Z,81.12
2023-01-19T11:07:29.218Z,82.22
2023-01-19T11:10:21.092Z,82.62
2023-01-19T11:12:57.395Z,83.19
2023-01-19T11:15:26.884Z,83.33
2023-01-19T11:17:55.319Z,82.39
2023-01-19T11:20:25.487Z,83.30
2023-01-19T11:23:05.482Z,83.00
2023-01-19T11:25:35.728Z,83.21
2023-01-19T11:28:05.511Z,82.84
2023-01-19T11:30:35.999Z,83.29
2023-01-19T11:33:05.745Z,82.52
2023-01-19T11:35:39.375Z,82.29
2023-01-19T11:38:09.215Z,81.27
2023-01-19T11:40:37.504Z,81.36
2023-01-19T11:43:06.838Z,80.97
2023-01-19T11:45:35.829Z,80.40
2023-01-19T11:48:05.714Z,80.64
2023-01-19T11:50:36.580Z,81.39
2023-01-19T11:53:08.049Z,81.51
2023-01-19T11:55:39.131Z,81.63
2023-01-19T11:58:10.264Z,82.62
2023-01-19T12:00:42.461Z,82.01
2023-01-19T12:03:14.868Z,81.86
2023-01-19T12:05:48.176Z,81.85
2023-01-19T12:08:19.575Z,81.54
2023-01-19T12:10:48.642Z,82.11
2023-01-19T12:13:22.698Z,81.54
2023-01-19T12:15:54.952Z,81.77
2023-01-19T12:18:24.380Z,82.04
2023-01-19T12:20:54.057Z,82.38
2023-01-19T12:23:37.074Z,82.07
2023-01-19T12:26:17.379Z,81.99
2023-01-19T12:28:49.318Z,82.15
2023-01-19T12:31:19.284Z,81.74
2023-01-19T12:33:47.783Z,81.28
2023-01-19T12:36:40.061Z,80.55
2023-01-19T12:39:16.772Z,80.41
2023-01-19T12:41:45.822Z,80.47
2023-01-19T12:44:22.447Z,80.35
2023-01-19T12:46:54.452Z,79.60
2023-01-19T12:49:27.401Z,79.75
2023-01-19T12:52:12.414Z,80.13
2023-01-19T12:54:43.009Z,80.30
2023-01-19T12:57:19.362Z,79.88
2023-01-19T12:59:57.278Z,79.61
2023-01-19T13:02:45.157Z,79.27
2023-01-19T13:05:25.408Z,79.94
2023-01-19T13:08:17.984Z,79.90
2023-01-19T13:11:20.625Z,80.34
2023-01-19T13:14:30.452Z,79.57
2023-01-19T13:17:13.960Z,79.14
2023-01-19T13:19:48.831Z,79.57
2023-01-19T13:23:04.687Z,79.62
2023-01-19T13:25:35.435Z,79.85
2023-01-19T13:28:09.927Z,79.79
2023-01-19T13:30:41.235Z,79.53
2023-01-19T13:33:23.474Z,77.59
2023-01-19T13:35:54.197Z,77.59
2023-01-19T13:38:23.863Z,76.59
2023-01-19T13:40:53.041Z,75.89
2023-01-19T13:43:26.600Z,75.33
2023-01-19T13:45:55.251Z,74.45
2023-01-19T13:48:25.825Z,74.89
2023-01-19T13:50:59.130Z,75.20
2023-01-19T13:53:27.330Z,75.33
2023-01-19T13:56:14.115Z,75.46
2023-01-19T13:58:42.219Z,75.10
2023-01-19T14:01:22.022Z,75.91
2023-01-19T14:03:53.055Z,76.71
2023-01-19T14:06:36.202Z,76.69
2023-01-19T14:09:16.969Z,76.08
2023-01-19T14:11:46.397Z,75.49
2023-01-19T14:14:25.343Z,75.77
2023-01-19T14:16:53.957Z,75.62
2023-01-19T14:19:23.343Z,75.72
2023-01-19T14:22:02.650Z,75.88
2023-01-19T14:24:32.881Z,76.72
2023-01-19T14:27:19.781Z,77.11
2023-01-19T14:29:50.435Z,77.23
2023-01-19T14:32:20.377Z,77.43
2023-01-19T14:34:51.354Z,77.00
2023-01-19T14:37:22.833Z,77.34
2023-01-19T14:39:52.402Z,77.78
2023-01-19T14:42:24.987Z,78.22
2023-01-19T14:44:54.487Z,78.31
2023-01-19T14:47:33.316Z,77.74
2023-01-19T14:50:07.430Z,78.04
2023-01-19T14:52:39.644Z,78.61
2023-01-19T14:55:16.290Z,78.79
2023-01-19T14:57:44.592Z,78.90
2023-01-19T15:00:17.359Z,78.90
2023-01-19T15:02:46.548Z,78.98
2023-01-19T15:05:17.066Z,78.16
2023-01-19T15:07:46.805Z,77.56
2023-01-19T15:10:21.547Z,77.63
2023-01-19T15:12:50.424Z,76.92
2023-01-19T15:15:19.749Z,76.95
2023-01-19T15:17:48.188Z,76.46
2023-01-19T15:20:19.511Z,76.26
2023-01-19T15:22:48.387Z,76.45
2023-01-19T15:25:17.934Z,78.13
2023-01-19T15:27:46.852Z,78.76
2023-01-19T15:30:17.286Z,79.06
2023-01-19T15:32:45.917Z,78.52
2023-01-19T15:35:15.610Z,77.90
2023-01-19T15:37:45.532Z,77.70
2023-01-19T15:40:14.562Z,77.72
2023-01-19T15:42:43.374Z,77.44
2023-01-19T15:45:28.878Z,77.22
2023-01-19T15:47:57.171Z,76.91
2023-01-19T15:50:26.241Z,76.67
2023-01-19T15:52:55.951Z,77.24
2023-01-19T15:55:24.366Z,77.57
2023-01-19T15:57:52.711Z,77.35
2023-01-19T16:00:20.910Z,77.46
2023-01-19T16:02:51.886Z,77.67
2023-01-19T16:05:21.605Z,78.04
2023-01-19T16:07:52.484Z,77.54
2023-01-19T16:10:22.184Z,78.43
2023-01-19T16:12:50.408Z,78.73
2023-01-19T16:15:18.951Z,78.47
2023-01-19T16:17:47.189Z,78.84
2023-01-19T16:20:15.658Z,78.94
2023-01-19T16:22:44.213Z,79.89
2023-01-19T16:25:12.737Z,80.14
2023-01-19T16:27:42.311Z,81.11
2023-01-19T16:30:12.869Z,82.37
2023-01-19T16:32:41.269Z,83.18
2023-01-19T16:35:09.662Z,84.55
2023-01-19T16:37:37.944Z,85.06
2023-01-19T16:40:06.944Z,85.83
2023-01-19T16:42:35.224Z,86.12
2023-01-19T16:45:05.207Z,87.02
2023-01-19T16:47:33.547Z,87.19
2023-01-19T16:50:01.498Z,87.23
2023-01-19T16:52:29.727Z,87.98
2023-01-19T16:54:57.864Z,88.23
2023-01-19T16:57:26.205Z,88.47
2023-01-19T16:59:54.183Z,88.25
2023-01-19T17:02:23.775Z,89.20
2023-01-19T17:04:51.981Z,89.04
2023-01-19T17:07:20.422Z,89.20
2023-01-19T17:09:48.398Z,88.73
2023-01-19T17:12:16.575Z,88.13
2023-01-19T17:14:47.144Z,87.61
2023-01-19T17:17:15.570Z,86.98
2023-01-19T17:19:45.745Z,86.72
2023-01-19T17:22:14.980Z,86.60
2023-01-19T17:24:43.594Z,86.32
2023-01-19T17:27:11.824Z,86.31
2023-01-19T17:29:39.805Z,86.52
2023-01-19T17:32:08.044Z,86.11
2023-01-19T17:34:36.049Z,86.55
2023-01-19T17:37:05.711Z,86.25
2023-01-19T17:39:33.729Z,85.99
2023-01-19T17:42:01.973Z,85.79
2023-01-19T17:44:29.967Z,85.76
2023-01-19T17:46:59.967Z,85.85
2023-01-19T17:49:28.336Z,85.83
2023-01-19T17:51:56.629Z,85.99
2023-01-19T17:54:26.024Z,85.52
2023-01-19T17:56:56.077Z,85.72
2023-01-19T17:59:24.119Z,86.02
2023-01-19T18:01:52.464Z,85.89
2023-01-19T18:04:20.549Z,86.12
2023-01-19T18:06:50.042Z,86.14
2023-01-19T18:09:18.015Z,85.76
2023-01-19T18:11:47.642Z,86.17
2023-01-19T18:14:15.790Z,85.87
2023-01-19T18:16:44.014Z,85.78
2023-01-19T18:19:12.143Z,85.55
2023-01-19T18:21:40.441Z,85.61
2023-01-19T18:24:08.770Z,85.50
2023-01-19T18:26:37.568Z,85.41
2023-01-19T18:29:06.896Z,85.68
2023-01-19T18:31:35.324Z,85.42
2023-01-19T18:34:04.162Z,85.08
2023-01-19T18:36:34.081Z,84.99
2023-01-19T18:39:02.458Z,85.28
2023-01-19T18:41:30.944Z,86.03
2023-01-19T18:43:59.589Z,86.18
2023-01-19T18:46:29.356Z,85.94
2023-01-19T18:48:57.720Z,85.93
2023-01-19T18:51:26.026Z,85.88
2023-01-19T18:53:54.045Z,86.01
2023-01-19T18:56:22.464Z,85.50
2023-01-19T18:58:50.645Z,85.17
2023-01-19T19:01:22.440Z,85.22
2023-01-19T19:03:52.648Z,85.45
2023-01-19T19:06:21.779Z,85.60
2023-01-19T19:08:50.675Z,85.17
2023-01-19T19:11:19.789Z,85.15
2023-01-19T19:13:51.862Z,85.19
2023-01-19T19:16:20.168Z,85.04
2023-01-19T19:18:49.927Z,84.73
2023-01-19T19:21:22.583Z,84.94
2023-01-19T19:23:51.441Z,85.20
2023-01-19T19:26:19.875Z,85.34
2023-01-19T19:28:48.247Z,85.54
2023-01-19T19:31:20.284Z,84.89
2023-01-19T19:33:50.652Z,84.44
2023-01-19T19:36:21.215Z,84.13
2023-01-19T19:38:49.322Z,83.61
2023-01-19T19:41:19.456Z,83.37
2023-01-19T19:43:47.826Z,83.63
2023-01-19T19:46:17.744Z,85.86
2023-01-19T19:48:45.764Z,84.85
2023-01-19T19:51:19.558Z,84.53
2023-01-19T19:53:51.490Z,84.12
2023-01-19T19:56:21.231Z,82.46
2023-01-19T19:58:49.930Z,82.26
2023-01-19T20:01:20.385Z,82.26
2023-01-19T20:03:48.949Z,82.11
2023-01-19T20:06:20.716Z,81.92
2023-01-19T20:08:50.717Z,82.34
2023-01-19T20:11:21.758Z,82.47
2023-01-19T20:13:50.694Z,82.67
2023-01-19T20:16:20.560Z,82.35
2023-01-19T20:18:51.353Z,81.94
2023-01-19T20:21:21.212Z,82.01
2023-01-19T20:23:52.839Z,82.10
2023-01-19T20:26:24.884Z,81.96
2023-01-19T20:28:52.955Z,81.95
2023-01-19T20:31:22.832Z,81.72
2023-01-19T20:33:52.335Z,81.03
2023-01-19T20:36:21.928Z,81.02
2023-01-19T20:38:51.532Z,81.16
2023-01-19T20:41:21.065Z,81.57
2023-01-19T20:43:49.191Z,81.90
2023-01-19T20:46:17.706Z,81.85
2023-01-19T20:48:50.612Z,81.82
2023-01-19T20:51:20.132Z,82.06
2023-01-19T20:53:48.760Z,81.95
2023-01-19T20:56:18.423Z,82.32
2023-01-19T20:58:46.471Z,82.08
2023-01-19T21:01:17.109Z,82.05
2023-01-19T21:03:45.610Z,81.72
2023-01-19T21:06:14.401Z,81.31
2023-01-19T21:08:42.759Z,81.14
2023-01-19T21:11:13.130Z,81.37
2023-01-19T21:13:42.689Z,81.03
2023-01-19T21:16:13.082Z,81.31
2023-01-19T21:18:46.004Z,81.50
2023-01-19T21:21:28.881Z,81.93
2023-01-19T21:23:57.769Z,81.85
2023-01-19T21:26:26.066Z,82.15
2023-01-19T21:28:55.426Z,82.54
2023-01-19T21:31:27.107Z,82.71
2023-01-19T21:33:55.512Z,82.82
2023-01-19T21:36:24.532Z,83.40
2023-01-19T21:38:52.769Z,82.79
2023-01-19T21:41:21.296Z,81.25
2023-01-19T21:43:49.276Z,80.54
2023-01-19T21:46:21.136Z,80.72
2023-01-19T21:48:49.171Z,80.70
2023-01-19T21:51:17.451Z,80.74
2023-01-19T21:53:45.427Z,80.46
2023-01-19T21:56:13.832Z,80.48
2023-01-19T21:58:41.829Z,80.56
2023-01-19T22:01:12.578Z,80.78
2023-01-19T22:03:43.011Z,80.62
2023-01-19T22:06:13.021Z,80.98
2023-01-19T22:08:41.486Z,80.91
2023-01-19T22:11:11.877Z,81.00
2023-01-19T22:13:40.162Z,81.23
2023-01-19T22:16:10.325Z,81.36
2023-01-19T22:18:39.586Z,81.94
2023-01-19T22:21:10.246Z,81.89
2023-01-19T22:23:38.752Z,82.05
2023-01-19T22:26:07.794Z,81.71
2023-01-19T22:28:35.937Z,82.15
2023-01-19T22:31:05.887Z,82.50
2023-01-19T22:33:34.130Z,82.29
2023-01-19T22:36:15.985Z,83.10
2023-01-19T22:38:44.999Z,83.69
2023-01-19T22:41:14.837Z,84.52
2023-01-19T22:43:43.391Z,84.29
2023-01-19T22:46:12.269Z,83.76
2023-01-19T22:48:41.383Z,83.63
2023-01-19T22:51:09.952Z,83.56
2023-01-19T22:53:39.292Z,83.31
2023-01-19T22:56:11.952Z,83.28
2023-01-19T22:58:41.232Z,82.83
2023-01-19T23:01:10.796Z,82.67
2023-01-19T23:03:38.975Z,82.62
2023-01-19T23:06:09.072Z,83.10
2023-01-19T23:08:38.895Z,82.54
2023-01-19T23:11:08.266Z,82.35
2023-01-19T23:13:36.475Z,82.52
2023-01-19T23:16:05.411Z,82.15
2023-01-19T23:18:33.567Z,82.02
2023-01-19T23:21:04.828Z,81.96
2023-01-19T23:23:33.373Z,81.84
2023-01-19T23:26:04.251Z,81.99
2023-01-19T23:28:33.954Z,82.65
2023-01-19T23:31:02.383Z,82.59
2023-01-19T23:33:30.430Z,82.94
2023-01-19T23:35:58.687Z,82.70
2023-01-19T23:38:26.639Z,82.48
2023-01-19T23:40:57.874Z,82.92
2023-01-19T23:43:27.247Z,83.52
2023-01-19T23:45:55.536Z,83.33
2023-01-19T23:48:23.527Z,83.27
2023-01-19T23:50:51.883Z,83.18
2023-01-19T23:53:19.938Z,83.19
2023-01-19T23:55:48.195Z,83.21
2023-01-19T23:58:16.171Z,82.66
